Terminal Aerodrome Forecast
Issued by NWS

Home | Current Version | Previous Version | Text Only | Print | Product List | Glossary On
Versions: 1 2 3 4 5 6 7 8 9 10 11 12 13 14 15 16 17 18 19 20 21 22 23 24 25 26 27 28 29 30 31 32 33 34 35 36 37 38 39 40
000
FTUS46 KPQR 212341
TAFONP
TAF
KONP 212341Z 2200/2224 18020G30KT P6SM BKN045 OVC120
     FM220500 19020G30KT 6SM -RA BKN035 OVC080
     FM220900 19027G40KT 3SM RA BKN018 OVC025
     FM221600 19024G35KT 2SM RA BKN025 OVC040
     FM222200 20015G28KT 3SM RA OVC010=

USA.gov is the U.S. government's official web portal to all federal, state and local government web resources and services.